Tiempo atmosférico en la estación meteorológica de Navasfrías, Salamanca (880 m.)



Fecha
DESCASC
Temp. máxima en grados centígrados (hora)
DESCASC
Temp. mínima en grados centígrados (hora)
DESCASC
Temp. media en grados centígrados
DESCASC
Racha de viento máxima en m/sg (hora)
DESCASC
Velocidad máxima media en intervalos de 10 minutos(hora)
DESCASC
Precipitaciones diarias en mm
DESCASC
Precipitaciones de 00:00 a 06:00 en mm
DESCASC
Precipitaciones de 06:00 a 12:00 en mm
DESCASC
Precipitaciones de 12:00 a 18:00 en mm
DESCASC
Precipitaciones de 18:00 a 24:00 en mm
DESCASC
02-08-2020 29.4 (17:10) 8.2 (07:50) 18.8 7.78 (16:40) 3.61 (17:00) 0 0 0 0 0
01-08-2020 31.6 (18:20) 7.8 (07:30) 19.7 6.39 (15:00) 3.06 (19:10) 0 0 0 0 0
31-07-2020 33.4 (17:30) 9.9 (06:50) 21.7 7.22 (16:10) 3.61 (17:10) 0 0 0 0 0
30-07-2020 33.1 (18:30) 13.4 (00:00) 23.2 8.06 (08:50) 3.61 (13:40) 0 0 0 0 0
29-07-2020 34.3 (18:00) 12.4 (00:00) 23.3 7.22 (16:20) 3.06 (16:20) 0 0 0 0 0
28-07-2020 32.9 (16:20) 13 (07:30) 23 4.72 (16:40) 2.22 (16:40) 0 0 0 0 0
27-07-2020 34.1 (16:50) 12.6 (00:00) 23.3 6.67 (15:50) 2.78 (15:30) 0 0 0 0 0
26-07-2020 33.3 (17:40) 9.7 (00:00) 21.5 3.61 (17:10) 1.94 (18:10) 0 0 0 0 0
25-07-2020 32.4 (16:50) 9.9 (07:30) 21.2 5.83 (17:50) 3.33 (17:40) 0 0 0 0 0
24-07-2020 31.7 (17:40) 10.9 (00:00) 21.3 5.56 (17:10) 2.78 (17:30) 0 0 0 0 0
23-07-2020 32.7 (17:40) 13 (00:00) 22.9 7.22 (19:50) 2.78 (20:30) 0 0 0 0 0
22-07-2020 31.2 (18:10) 11.4 (06:20) 21.3 6.67 (14:10) 3.06 (18:20) 0.2 0.2 0 0 0
21-07-2020 25.6 (12:40) 12.3 (00:00) 19 8.89 (14:10) 3.61 (14:20) 2.8 0.8 0.2 1.8 0
20-07-2020 32.9 (17:20) 8.2 (07:30) 20.6 6.11 (13:20) 2.78 (13:20) 0 0 0 0 0
19-07-2020 32.2 (17:10) 11.3 (00:00) 21.8 7.5 (14:30) 3.06 (18:50) 0 0 0 0 0
18-07-2020 33.6 (18:40) 8.3 (00:00) 20.9 4.72 (15:30) 2.5 (18:50) 0 0 0 0 0
17-07-2020 32.2 (17:50) 10.2 (00:00) 21.2 6.11 (14:20) 2.22 (15:00) 0 0 0 0 0
16-07-2020 32.4 (17:50) 9 (00:00) 20.7 3.89 (16:20) 2.22 (16:50) 0 0 0 0 0
15-07-2020 30.6 (18:10) 7.7 (07:20) 19.2 6.39 (14:20) 2.78 (14:20) 0 0 0 0 0
14-07-2020 29.8 (18:30) 10.6 (00:00) 20.2 6.39 (16:10) 2.78 (15:00) 0 0 0 0 0
13-07-2020 30.4 (18:30) 12.4 (07:30) 21.4 6.67 (16:20) 2.78 (14:30) 0 0 0 0 0
12-07-2020 28.7 (19:20) 14.3 (06:10) 21.5 8.61 (18:00) 3.89 (15:30) 0 0 0 0 0
11-07-2020 32.9 (17:00) 11.2 (07:30) 22.1 14.17 (20:30) 7.78 (20:40) 2.2 0 0 0 2.2
10-07-2020 31.6 (18:50) 11.7 (00:00) 21.7 4.17 (14:50) 2.22 (14:50) 0 0 0 0 0
09-07-2020 31.7 (19:40) 8.9 (07:20) 20.3 5 (14:10) 2.22 (11:20) 0 0 0 0 0
08-07-2020 31.2 (17:30) 11.3 (07:40) 21.3 8.06 (12:50) 3.89 (12:40) 0 0 0 0 0

Gráficas

Temp. máximas Temp. mínimas Temp. medias Precipitaciones Rachas de viento máximas Velocidades máximas media en intervalos de 10 minutos

Datos horarios

Fecha y hora oficial Temperatura (ºC) Velocidad del viento (km/h) Dirección del viento Racha (km/h) Dirección de racha Precipitación (mm) Presión (hPa) Tendencia (hPa) Humedad (%)
2020-08-06 23:00:00 19.8 3 Sur 5 Sudoeste 0 -- -- 60
2020-08-06 22:00:00 24.3 2 Sur 4 Sudeste 0 -- -- 48
2020-08-06 21:00:00 30.1 3 Sur 18 Sudeste 0 -- -- 34
2020-08-06 20:00:00 32.7 8 Sur 24 Sur 0 -- -- 26
2020-08-06 19:00:00 33.3 10 Sudeste 29 Sudoeste 0 -- -- 23
2020-08-06 18:00:00 34 10 Sur 29 Sur 0 -- -- 24
2020-08-06 17:00:00 33.6 13 Sur 31 Sur 0 -- -- 26
2020-08-06 16:00:00 32.7 10 Sudeste 29 Sudeste 0 -- -- 28
2020-08-06 15:00:00 32 12 Sur 31 Este 0 -- -- 32
2020-08-06 14:00:00 31.2 13 Sudeste 28 Sudoeste 0 -- -- 33
2020-08-06 13:00:00 29.5 18 Sudeste 35 Sudeste 0 -- -- 37
2020-08-06 12:00:00 28.6 13 Sudeste 32 Sudeste 0 -- -- 39
2020-08-06 11:00:00 27.7 6 Este 19 Sudeste 0 -- -- 38
2020-08-06 10:00:00 24.6 6 Este 21 Sudeste 0 -- -- 40
2020-08-06 09:00:00 15.4 0 Calma 5 Sur 0 -- -- 83
2020-08-06 08:00:00 12.5 2 Sur 6 Sur 0 -- -- 85
2020-08-06 07:00:00 12.5 0 Calma 5 Sur 0 -- -- 86
2020-08-06 06:00:00 12.7 0 Calma 4 Sur 0 -- -- 86
2020-08-06 05:00:00 13.1 2 Sur 4 Sur 0 -- -- 85
2020-08-06 04:00:00 13.5 2 Sur 4 Sur 0 -- -- 83
2020-08-06 03:00:00 14 2 Sur 4 Sur 0 -- -- 82
2020-08-06 02:00:00 14.7 2 Sur 4 Sur 0 -- -- 79
2020-08-06 01:00:00 15.7 2 Sur 6 Sur 0 -- -- 75
2020-08-06 00:00:00 16.6 0 Calma 6 Sur 0 -- -- 68
2020-08-05 23:00:00 18.4 2 Sur 5 Sur 0 -- -- 65
2020-08-05 22:00:00 21.9 4 Sur 9 Sudoeste 0 -- -- 62
2020-08-05 21:00:00 28.4 3 Sur 9 Sur 0 -- -- 44
2020-08-05 20:00:00 31.4 0 Calma 5 Sur 0 -- -- 35
2020-08-05 19:00:00 32.9 2 Sudoeste 13 Sur 0 -- -- 28
2020-08-05 18:00:00 32.6 2 Nordeste 12 Noroeste 0 -- -- 27
2020-08-05 17:00:00 33.1 4 Nordeste 18 Oeste 0 -- -- 23
2020-08-05 16:00:00 32.5 4 Noroeste 18 Norte 0 -- -- 22
2020-08-05 15:00:00 31.8 6 Noroeste 17 Norte 0 -- -- 23
2020-08-05 14:00:00 31.2 4 Sudoeste 15 Sur 0 -- -- 24
2020-08-05 13:00:00 29.5 4 Norte 15 Sudoeste 0 -- -- 29
2020-08-05 12:00:00 28.1 3 Nordeste 7 Nordeste 0 -- -- 35
2020-08-05 11:00:00 24.2 3 Norte 7 Norte 0 -- -- 50
2020-08-05 10:00:00 17.9 0 Calma 3 Sur 0 -- -- 79
2020-08-05 09:00:00 12.3 0 Calma 4 Sur 0 -- -- 83
2020-08-05 08:00:00 9.6 0 Calma 4 Sur 0 -- -- 86
2020-08-05 07:00:00 9.4 0 Calma 5 Sur 0 -- -- 84
2020-08-05 06:00:00 9.8 2 Sur 4 Sur 0 -- -- 82
2020-08-05 05:00:00 10.5 2 Sur 4 Sur 0 -- -- 80
2020-08-05 04:00:00 11.3 2 Sur 4 Sudoeste 0 -- -- 77
2020-08-05 03:00:00 11.9 0 Calma 5 Sudoeste 0 -- -- 75
2020-08-05 02:00:00 12.3 2 Sur 4 Sur 0 -- -- 75
2020-08-05 01:00:00 13.3 2 Sur 5 Sur 0 -- -- 72
2020-08-05 00:00:00 14.7 2 Sur 4 Sur 0 -- -- 69
2020-08-04 23:00:00 17.2 2 Sur 5 Sur 0 -- -- 63
2020-08-04 22:00:00 20.7 3 Sur 5 Sur 0 -- -- 57
2020-08-04 21:00:00 27.7 0 Calma 11 Noroeste 0 -- -- 39
2020-08-04 20:00:00 29.1 3 Norte 12 Oeste 0 -- -- 33
2020-08-04 19:00:00 30.4 3 Nordeste 9 Norte 0 -- -- 31
2020-08-04 18:00:00 30.7 4 Nordeste 14 Oeste 0 -- -- 27
2020-08-04 17:00:00 30.4 6 Norte 15 Norte 0 -- -- 28
2020-08-04 16:00:00 29.9 4 Norte 13 Norte 0 -- -- 28
2020-08-04 15:00:00 28.8 4 Noroeste 17 Norte 0 -- -- 33
2020-08-04 14:00:00 27.4 3 Noroeste 12 Sudeste 0 -- -- 36
2020-08-04 13:00:00 25.8 4 Norte 12 Norte 0 -- -- 41
2020-08-04 12:00:00 23.9 3 Norte 9 Este 0 -- -- 52
2020-08-04 11:00:00 20.9 2 Este 7 Nordeste 0 -- -- 65
2020-08-04 10:00:00 16.3 0 Calma 5 Sudeste 0 -- -- 87
2020-08-04 09:00:00 11.9 0 Calma 3 Sur 0 -- -- 100
2020-08-04 08:00:00 9.9 0 Calma 3 Sudoeste 0 -- -- 97
2020-08-04 07:00:00 10.2 0 Calma 4 Sur 0 -- -- 95
2020-08-04 06:00:00 10.7 0 Calma 3 Sudeste 0 -- -- 94
2020-08-04 05:00:00 11.4 0 Calma 3 Sur 0 -- -- 93
2020-08-04 04:00:00 12.1 0 Calma 4 Sur 0 -- -- 92
2020-08-04 03:00:00 13.1 0 Calma 4 Sur 0 -- -- 89
2020-08-04 02:00:00 14.4 0 Calma 3 Sur 0 -- -- 87
2020-08-04 01:00:00 15.6 2 Sur 6 Sur 0 -- -- 82
2020-08-04 00:00:00 17.6 0 Calma 7 Noroeste 0 -- -- 76
2020-08-03 23:00:00 20.4 0 Calma 16 Noroeste 0 -- -- 67
2020-08-03 22:00:00 22.1 5 Norte 16 Noroeste 0 -- -- 59
2020-08-03 21:00:00 25.6 2 Nordeste 14 Norte 0 -- -- 34
2020-08-03 20:00:00 27.4 9 Norte 20 Norte 0 -- -- 28
2020-08-03 19:00:00 27.9 10 Noroeste 21 Noroeste 0 -- -- 29
2020-08-03 18:00:00 28 11 Norte 22 Noroeste 0 -- -- 29
2020-08-03 17:00:00 27.9 8 Norte 20 Noroeste 0 -- -- 32
2020-08-03 16:00:00 27.2 6 Norte 23 Noroeste 0 -- -- 34
2020-08-03 15:00:00 26 8 Norte 25 Noroeste 0 -- -- 37
2020-08-03 14:00:00 24.9 8 Nordeste 25 Norte 0 -- -- 38
2020-08-03 13:00:00 23.4 8 Norte 19 Nordeste 0 -- -- 45
2020-08-03 12:00:00 21.3 9 Norte 18 Noroeste 0 -- -- 51
2020-08-03 11:00:00 19.3 4 Norte 16 Norte 0 -- -- 60
2020-08-03 10:00:00 16.2 7 Norte 13 Norte 0 -- -- 71
2020-08-03 09:00:00 13.9 2 Sudeste 5 Oeste 0 -- -- 82
2020-08-03 08:00:00 12.7 0 Calma 5 Nordeste 0 -- -- 83
2020-08-03 07:00:00 13.9 2 Este 8 Norte 0 -- -- 79
2020-08-03 06:00:00 15 0 Calma 14 Noroeste 0 -- -- 75
2020-08-03 05:00:00 15.1 3 Nordeste 10 Norte 0 -- -- 76
2020-08-03 04:00:00 16.1 6 Noroeste 14 Noroeste 0 -- -- 74
2020-08-03 03:00:00 15 0 Calma 6 Sudeste 0 -- -- 79
2020-08-03 02:00:00 17.8 6 Noroeste 17 Norte 0 -- -- 69
2020-08-03 01:00:00 18.7 4 Nordeste 15 Noroeste 0 -- -- 66
2020-08-03 00:00:00 19.9 3 Norte 18 Norte 0 -- -- 63
2020-08-02 23:00:00 21.3 9 Noroeste 26 Noroeste 0 -- -- 59
2020-08-02 22:00:00 22.6 7 Noroeste 17 Norte 0 -- -- 56
2020-08-02 21:00:00 25.6 2 Norte 20 Norte 0 -- -- 34
2020-08-02 20:00:00 27.8 9 Norte 27 Noroeste 0 -- -- 28
2020-08-02 19:00:00 28.1 12 Noroeste 23 Noroeste 0 -- -- 28
2020-08-02 18:00:00 29.2 8 Noroeste 26 Noroeste 0 -- -- 27
2020-08-02 17:00:00 28.9 13 Norte 28 Norte 0 -- -- 30
2020-08-02 16:00:00 28.7 10 Noroeste 25 Noroeste 0 -- -- 30
2020-08-02 15:00:00 27 9 Norte 24 Nordeste 0 -- -- 33
2020-08-02 14:00:00 26.1 5 Nordeste 26 Noroeste 0 -- -- 39
2020-08-02 13:00:00 24.5 9 Norte 19 Norte 0 -- -- 47
2020-08-02 12:00:00 22.7 8 Norte 20 Noroeste 0 -- -- 54
2020-08-02 11:00:00 19.7 4 Norte 14 Norte 0 -- -- 71
2020-08-02 10:00:00 15.3 0 Calma 5 Sudeste 0 -- -- 89
2020-08-02 09:00:00 11 0 Calma 3 Sur 0 -- -- 100
2020-08-02 08:00:00 8.3 0 Calma 3 Sur 0 -- -- 97
2020-08-02 07:00:00 8.3 0 Calma 3 Sur 0 -- -- 95
2020-08-02 06:00:00 9 0 Calma 4 Sudoeste 0 -- -- 96
2020-08-02 05:00:00 9.6 0 Calma 4 Sur 0 -- -- 93
2020-08-02 04:00:00 10.3 2 Sur 4 Sur 0 -- -- 92
2020-08-02 03:00:00 11.3 0 Calma 4 Sur 0 -- -- 90
2020-08-02 02:00:00 12.6 2 Sur 5 Sur 0 -- -- 87
2020-08-02 01:00:00 14.3 2 Sur 5 Sudoeste 0 -- -- 85
2020-08-02 00:00:00 16 0 Calma 4 Sur 0 -- -- 82
2020-08-01 23:00:00 18.1 0 Calma 4 Sur 0 -- -- 74
2020-08-01 22:00:00 21.8 3 Sur 9 Norte 0 -- -- 62
2020-08-01 21:00:00 27.5 5 Noroeste 14 Noroeste 0 -- -- 45
2020-08-01 20:00:00 29.5 8 Noroeste 19 Noroeste 0 -- -- 36
2020-08-01 19:00:00 30.8 8 Noroeste 19 Noroeste 0 -- -- 35
2020-08-01 18:00:00 31.2 6 Norte 21 Noroeste 0 -- -- 34
2020-08-01 17:00:00 30.9 7 Norte 19 Norte 0 -- -- 33
2020-08-01 16:00:00 30.5 8 Noroeste 18 Noroeste 0 -- -- 34
2020-08-01 15:00:00 29.4 10 Norte 23 Noroeste 0 -- -- 35
2020-08-01 14:00:00 28.5 6 Nordeste 19 Noroeste 0 -- -- 37
2020-08-01 13:00:00 27 6 Noroeste 17 Noroeste 0 -- -- 40
2020-08-01 12:00:00 24.7 7 Norte 14 Noroeste 0 -- -- 45
2020-08-01 11:00:00 21.5 4 Norte 10 Este 0 -- -- 53
2020-08-01 10:00:00 15.9 2 Sudeste 3 Sudeste 0 -- -- 79
2020-08-01 09:00:00 10.4 0 Calma 3 Sur 0 -- -- 96
2020-08-01 08:00:00 7.9 0 Calma 4 Sur 0 -- -- 94
2020-08-01 07:00:00 8.1 0 Calma 4 Sur 0 -- -- 91
2020-08-01 06:00:00 8.8 0 Calma 4 Sur 0 -- -- 90
2020-08-01 05:00:00 9.9 0 Calma 4 Sur 0 -- -- 87
2020-08-01 04:00:00 10.9 0 Calma 6 Sur 0 -- -- 86
2020-08-01 03:00:00 11.2 2 Sudoeste 4 Sur 0 -- -- 83
2020-08-01 02:00:00 12.4 2 Sur 5 Sur 0 -- -- 79
2020-08-01 01:00:00 13.9 0 Calma 4 Sur 0 -- -- 74
2020-08-01 00:00:00 15.3 3 Sur 7 Sur 0 -- -- 65
2020-07-31 23:00:00 17.2 0 Calma 8 Noroeste 0 -- -- 58
2020-07-31 22:00:00 21.3 3 Sur 6 Sur 0 -- -- 50
2020-07-31 21:00:00 29.5 0 Calma 17 Sur 0 -- -- 32
2020-07-31 20:00:00 32.4 5 Sudoeste 21 Sur 0 -- -- 19
2020-07-31 19:00:00 32.9 10 Sudoeste 23 Sur 0 -- -- 17
2020-07-31 18:00:00 33.2 10 Sudoeste 24 Sur 0 -- -- 16
2020-07-31 17:00:00 33.3 10 Sur 26 Sudoeste 0 -- -- 19
2020-07-31 16:00:00 32.5 9 Sur 22 Sudoeste 0 -- -- 18
2020-07-31 15:00:00 31.4 10 Sudoeste 23 Sur 0 -- -- 22
2020-07-31 14:00:00 30.5 11 Sur 24 Sur 0 -- -- 28
2020-07-31 13:00:00 29.2 6 Sur 23 Sudoeste 0 -- -- 33
2020-07-31 12:00:00 27.8 12 Sur 24 Sudoeste 0 -- -- 42
2020-07-31 11:00:00 26.4 7 Sur 18 Sudoeste 0 -- -- 44
2020-07-31 10:00:00 20.4 3 Este 6 Este 0 -- -- 65
2020-07-31 09:00:00 14 2 Sur 6 Sur 0 -- -- 91
2020-07-31 08:00:00 10.4 2 Sur 8 Sur 0 -- -- 91
2020-07-31 07:00:00 10 3 Sur 4 Sur 0 -- -- 90
2020-07-31 06:00:00 10.4 3 Sur 5 Sudoeste 0 -- -- 82
2020-07-31 05:00:00 11.3 2 Sur 5 Sur 0 -- -- 80
2020-07-31 04:00:00 12.1 3 Sur 5 Sudoeste 0 -- -- 79
2020-07-31 03:00:00 13.3 3 Sur 5 Sur 0 -- -- 80
2020-07-31 02:00:00 14.8 3 Sur 5 Sur 0 -- -- 77
2020-07-31 01:00:00 16.5 3 Sur 6 Sur 0 -- -- 74
2020-07-31 00:00:00 18.6 3 Sur 6 Sur 0 -- -- 68
2020-07-30 23:00:00 21.2 0 Calma 5 Sur 0 -- -- 62
2020-07-30 22:00:00 25.4 2 Sur 14 Noroeste 0 -- -- 49
2020-07-30 21:00:00 29.6 3 Sur 18 Sur 0 -- -- 41
2020-07-30 20:00:00 31.2 10 Sur 23 Sudoeste 0 -- -- 34
2020-07-30 19:00:00 32.2 9 Sur 21 Sur 0 -- -- 30
2020-07-30 18:00:00 32.7 8 Sur 20 Sudoeste 0 -- -- 25
2020-07-30 17:00:00 32.5 9 Sudoeste 22 Sudoeste 0 -- -- 25
2020-07-30 16:00:00 32.2 9 Sur 25 Sur 0 -- -- 27
2020-07-30 15:00:00 31.5 9 Sudoeste 23 Sudoeste 0 -- -- 24
2020-07-30 14:00:00 30.9 11 Sur 24 Sudoeste 0 -- -- 30
2020-07-30 13:00:00 29.7 11 Sudoeste 22 Sudoeste 0 -- -- 31
2020-07-30 12:00:00 29.3 10 Sur 18 Sur 0 -- -- 36
2020-07-30 11:00:00 27.4 6 Sudeste 24 Sudeste 0 -- -- 43
2020-07-30 10:00:00 25 6 Este 28 Este 0 -- -- 46
2020-07-30 09:00:00 24 11 Sudeste 29 Sudeste 0 -- -- 54
2020-07-30 08:00:00 14.4 3 Sur 7 Sudoeste 0 -- -- 91
2020-07-30 07:00:00 13.5 0 Calma 4 Sudoeste 0 -- -- 89
2020-07-30 06:00:00 13.6 2 Sur 4 Sur 0 -- -- 87
2020-07-30 05:00:00 13.9 0 Calma 4 Sur 0 -- -- 85
2020-07-30 04:00:00 14.2 2 Sudoeste 4 Sur 0 -- -- 83
2020-07-30 03:00:00 14.8 2 Sur 4 Sur 0 -- -- 82
2020-07-30 02:00:00 15.8 2 Sur 7 Sur 0 -- -- 80
2020-07-30 01:00:00 16.9 2 Sur 4 Sur 0 -- -- 77
2020-07-30 00:00:00 17.9 0 Calma 5 Sur 0 -- -- 71
2020-07-29 23:00:00 19.5 2 Sur 6 Sudeste 0 -- -- 66
2020-07-29 22:00:00 23 3 Sur 9 Sur 0 -- -- 61
2020-07-29 21:00:00 29.2 3 Sur 8 Sudoeste 0 -- -- 44
2020-07-29 20:00:00 31.9 3 Sudeste 16 Este 0 -- -- 34
2020-07-29 19:00:00 33.2 8 Sudeste 18 Sudeste 0 -- -- 24
2020-07-29 18:00:00 34.3 7 Sur 21 Sudoeste 0 -- -- 23
2020-07-29 17:00:00 33.5 10 Sudeste 26 Sur 0 -- -- 22
2020-07-29 16:00:00 33.7 9 Sudeste 24 Sudoeste 0 -- -- 22
2020-07-29 15:00:00 33.1 9 Sudeste 24 Sudeste 0 -- -- 22
2020-07-29 14:00:00 32.6 9 Sur 22 Sur 0 -- -- 20
2020-07-29 13:00:00 30.7 8 Este 21 Sudeste 0 -- -- 33
2020-07-29 12:00:00 27.3 4 Norte 8 Norte 0 -- -- 57
2020-07-29 11:00:00 23.1 3 Norte 6 Norte 0 -- -- 71
2020-07-29 10:00:00 18 0 Calma 4 Norte 0 -- -- 93
2020-07-29 09:00:00 14.4 0 Calma 2 Sur 0 -- -- 99
2020-07-29 08:00:00 12.5 0 Calma 4 Sudeste 0 -- -- 96
2020-07-29 07:00:00 12.7 0 Calma 5 Sur 0 -- -- 95
2020-07-29 06:00:00 13.3 0 Calma 5 Sur 0 -- -- 93
2020-07-29 05:00:00 14.1 2 Sur 4 Sur 0 -- -- 93
2020-07-29 04:00:00 14.6 0 Calma 5 Sur 0 -- -- 93
2020-07-29 03:00:00 15 2 Sur 4 Sur 0 -- -- 89
2020-07-29 02:00:00 15.6 2 Sur 4 Sur 0 -- -- 87
2020-07-29 01:00:00 16.4 0 Calma 6 Sur 0 -- -- 83
2020-07-29 00:00:00 17.6 0 Calma 5 Sur 0 -- -- 78
2020-07-28 23:00:00 19.8 2 Sur 6 Sur 0 -- -- 72
2020-07-28 22:00:00 22.8 3 Sur 7 Sur 0 -- -- 68
2020-07-28 21:00:00 27.7 0 Calma 4 Sur 0 -- -- 60
2020-07-28 20:00:00 27.2 3 Sudoeste 8 Sudoeste 0 -- -- 58
2020-07-28 19:00:00 28.9 0 Calma 8 Oeste 0 -- -- 47
2020-07-28 18:00:00 30.6 3 Nordeste 9 Norte 0 -- -- 39
2020-07-28 17:00:00 32 8 Sur 17 Sur 0 -- -- 30
2020-07-28 16:00:00 32 8 Noroeste 14 Noroeste 0 -- -- 35
2020-07-28 15:00:00 30.7 5 Nordeste 11 Nordeste 0 -- -- 38
2020-07-28 14:00:00 29.4 4 Nordeste 10 Norte 0 -- -- 44
2020-07-28 13:00:00 27.4 3 Nordeste 9 Nordeste 0 -- -- 49
2020-07-28 12:00:00 24.4 3 Nordeste 9 Este 0 -- -- 60
2020-07-28 11:00:00 22.3 3 Nordeste 11 Norte 0 -- -- 68
2020-07-28 10:00:00 18.5 3 Norte 6 Nordeste 0 -- -- 82
2020-07-28 09:00:00 15.2 0 Calma 3 Sur 0 -- -- 93
2020-07-28 08:00:00 13 0 Calma 5 Sur 0 -- -- 92
2020-07-28 07:00:00 13.6 0 Calma 4 Sur 0 -- -- 90
2020-07-28 06:00:00 14.1 0 Calma 4 Sur 0 -- -- 88
2020-07-28 05:00:00 14.2 2 Sur 4 Sudoeste 0 -- -- 86
2020-07-28 04:00:00 15 0 Calma 4 Sur 0 -- -- 87
2020-07-28 03:00:00 16 0 Calma 6 Sur 0 -- -- 84
2020-07-28 02:00:00 16.8 0 Calma 8 Sudoeste 0 -- -- 83
2020-07-28 01:00:00 17.8 0 Calma 6 Sudeste 0 -- -- 81
2020-07-28 00:00:00 19.5 0 Calma 6 Oeste 0 -- -- 76
2020-07-27 23:00:00 22.9 2 Este 12 Noroeste 0 -- -- 64
2020-07-27 22:00:00 25.1 5 Norte 17 Noroeste 0 -- -- 56
2020-07-27 21:00:00 29.1 2 Sur 9 Sudoeste 0 -- -- 48
2020-07-27 20:00:00 31.9 7 Sur 18 Sudoeste 0 -- -- 32
2020-07-27 19:00:00 32.5 7 Sudeste 19 Sur 0 -- -- 26
2020-07-27 18:00:00 32.5 10 Sudoeste 21 Sur 0 -- -- 30
2020-07-27 17:00:00 33.6 9 Sur 22 Sudeste 0 -- -- 29
2020-07-27 16:00:00 33.5 6 Oeste 24 Sudoeste 0 -- -- 27
2020-07-27 15:00:00 32.7 9 Sudoeste 20 Sudoeste 0 -- -- 27
2020-07-27 14:00:00 31.8 8 Sur 18 Sudeste 0 -- -- 28
2020-07-27 13:00:00 30.5 8 Sudeste 18 Sur 0 -- -- 29
2020-07-27 12:00:00 28.6 6 Este 17 Sudeste 0 -- -- 38
2020-07-27 09:00:00 -- -- -- -- -- -- -- -- --
2020-07-27 08:00:00 12.7 0 Calma 4 Sur 0 -- -- 95
2020-07-27 07:00:00 12.8 2 Sur 4 Sur 0 -- -- 93
2020-07-27 06:00:00 13.4 0 Calma 4 Sur 0 -- -- 93
2020-07-27 05:00:00 13.7 0 Calma 4 Sur 0 -- -- 92
2020-07-27 04:00:00 13.9 2 Sur 5 Sur 0 -- -- 91
2020-07-27 03:00:00 14.2 0 Calma 4 Sudoeste 0 -- -- 89
2020-07-27 02:00:00 14.4 0 Calma 4 Sudoeste 0 -- -- 85
2020-07-27 01:00:00 14.8 3 Sur 4 Sur 0 -- -- 81
2020-07-27 00:00:00 15.7 2 Sur 5 Sur 0 -- -- 73
2020-07-26 23:00:00 17.7 3 Sur 6 Sur 0 -- -- 68
2020-07-26 22:00:00 21.8 2 Sur 7 Sur 0 -- -- 65
2020-07-26 21:00:00 28.4 4 Sur 6 Sur 0 -- -- 48
2020-07-26 20:00:00 30.7 0 Calma 8 Noroeste 0 -- -- 42
2020-07-26 19:00:00 32.8 3 Norte 12 Noroeste 0 -- -- 30
2020-07-26 18:00:00 32.9 4 Norte 13 Noroeste 0 -- -- 28
2020-07-26 17:00:00 32.4 4 Norte 10 Noroeste 0 -- -- 34
2020-07-26 16:00:00 31 4 Norte 10 Nordeste 0 -- -- 32
2020-07-26 15:00:00 29.4 3 Nordeste 12 Noroeste 0 -- -- 36
2020-07-26 14:00:00 27.9 4 Norte 10 Norte 0 -- -- 44
2020-07-26 13:00:00 26.2 3 Nordeste 6 Norte 0 -- -- 47
2020-07-26 12:00:00 24.3 2 Norte 6 Este 0 -- -- 53
2020-07-26 11:00:00 20.9 0 Calma 4 Sudoeste 0 -- -- 63
2020-07-26 10:00:00 14.7 0 Calma 3 Sur 0 -- -- 94
2020-07-26 09:00:00 11.3 0 Calma 5 Sur 0 -- -- 96
2020-07-26 08:00:00 9.7 0 Calma 4 Sur 0 -- -- 94
2020-07-26 07:00:00 9.7 2 Sur 4 Sur 0 -- -- 92
2020-07-26 06:00:00 10 2 Sur 4 Sur 0 -- -- 90
2020-07-26 05:00:00 10.4 0 Calma 3 Sudeste 0 -- -- 88
2020-07-26 04:00:00 11 0 Calma 4 Sur 0 -- -- 84
2020-07-26 03:00:00 11.8 0 Calma 4 Sur 0 -- -- 83
2020-07-26 02:00:00 13.1 2 Sur 5 Sudeste 0 -- -- 80
2020-07-26 01:00:00 14.7 0 Calma 6 Sur 0 -- -- 76
2020-07-26 00:00:00 17 2 Sur 5 Sur 0 -- -- 69
2020-07-25 23:00:00 21.1 2 Este 14 Noroeste 0 -- -- 54
2020-07-25 22:00:00 23.6 0 Calma 14 Noroeste 0 -- -- 50
2020-07-25 21:00:00 28.4 7 Norte 21 Oeste 0 -- -- 40
2020-07-25 20:00:00 30.8 8 Noroeste 21 Noroeste 0 -- -- 30
2020-07-25 19:00:00 31.7 11 Noroeste 20 Noroeste 0 -- -- 25
2020-07-25 18:00:00 32 10 Noroeste 21 Oeste 0 -- -- 24
2020-07-25 17:00:00 32.3 8 Noroeste 15 Noroeste 0 -- -- 27
2020-07-25 16:00:00 32 8 Noroeste 18 Noroeste 0 -- -- 29
2020-07-25 15:00:00 31.5 3 Nordeste 11 Sur 0 -- -- 30
2020-07-25 14:00:00 30.3 4 Nordeste 12 Sudeste 0 -- -- 34
2020-07-25 13:00:00 28.7 3 Este 9 Norte 0 -- -- 37
2020-07-25 12:00:00 26.2 5 Norte 9 Norte 0 -- -- 46
2020-07-25 11:00:00 23 2 Norte 5 Norte 0 -- -- 56
2020-07-25 10:00:00 17.2 0 Calma 2 Sudeste 0 -- -- 85
2020-07-25 09:00:00 12.8 0 Calma 4 Sudeste 0 -- -- 93
2020-07-25 08:00:00 10.1 2 Sur 4 Sur 0 -- -- 93
2020-07-25 07:00:00 10.1 2 Sur 4 Sur 0 -- -- 92
2020-07-25 06:00:00 10.7 3 Sur 5 Sur 0 -- -- 91
2020-07-25 05:00:00 11.6 0 Calma 4 Sudeste 0 -- -- 89
2020-07-25 04:00:00 12.4 3 Sur 5 Sur 0 -- -- 89
2020-07-25 03:00:00 13.2 2 Sur 4 Sur 0 -- -- 87
2020-07-25 02:00:00 14.5 2 Sur 4 Sur 0 -- -- 84
2020-07-25 01:00:00 15.8 0 Calma 3 Sur 0 -- -- 80
2020-07-25 00:00:00 17.2 0 Calma 5 Sudeste 0 -- -- 76
2020-07-24 23:00:00 18.3 0 Calma 4 Sur 0 -- -- 71
2020-07-24 22:00:00 22 0 Calma 5 Sur 0 -- -- 57
2020-07-24 21:00:00 28.2 0 Calma 12 Norte 0 -- -- 38
2020-07-24 20:00:00 30.2 6 Norte 16 Noroeste 0 -- -- 30
2020-07-24 19:00:00 31.3 9 Noroeste 19 Noroeste 0 -- -- 25
2020-07-24 18:00:00 31.3 4 Norte 20 Noroeste 0 -- -- 24
2020-07-24 17:00:00 31.4 9 Noroeste 18 Oeste 0 -- -- 22
2020-07-24 16:00:00 30.9 5 Noroeste 14 Noroeste 0 -- -- 25
2020-07-24 15:00:00 29.9 4 Este 13 Norte 0 -- -- 30
2020-07-24 14:00:00 28.3 5 Norte 17 Norte 0 -- -- 31
2020-07-24 13:00:00 27 5 Norte 13 Norte 0 -- -- 38
2020-07-24 12:00:00 24.6 4 Norte 11 Norte 0 -- -- 47
2020-07-24 11:00:00 22.1 4 Norte 12 Noroeste 0 -- -- 59
2020-07-24 10:00:00 18.2 3 Nordeste 10 Norte 0 -- -- 76
2020-07-24 09:00:00 13.4 0 Calma 3 Sudeste 0 -- -- 96
2020-07-24 08:00:00 11 2 Sur 5 Sur 0 -- -- 96
2020-07-24 07:00:00 11.2 0 Calma 4 Sur 0 -- -- 94
2020-07-24 06:00:00 12 2 Sur 4 Sudoeste 0 -- -- 92
2020-07-24 05:00:00 12.6 2 Sur 4 Sur 0 -- -- 88
2020-07-24 04:00:00 13.7 0 Calma 5 Sur 0 -- -- 86
2020-07-24 03:00:00 14.6 3 Sur 5 Sur 0 -- -- 83
2020-07-24 02:00:00 16 0 Calma 5 Sur 0 -- -- 80
2020-07-24 01:00:00 17.2 0 Calma 5 Sur 0 -- -- 77
2020-07-24 00:00:00 18.8 3 Sur 6 Sur 0 -- -- 73
2020-07-23 23:00:00 21.8 3 Sur 12 Norte 0 -- -- 65
2020-07-23 22:00:00 26 4 Norte 19 Noroeste 0 -- -- 50
2020-07-23 21:00:00 28.8 8 Noroeste 21 Noroeste 0 -- -- 46
2020-07-23 20:00:00 31.1 8 Norte 26 Norte 0 -- -- 37
2020-07-23 19:00:00 32.3 8 Noroeste 17 Noroeste 0 -- -- 32
2020-07-23 18:00:00 31.3 4 Nordeste 13 Norte 0 -- -- 39
2020-07-23 17:00:00 32.3 5 Norte 15 Sudoeste 0 -- -- 37
2020-07-23 16:00:00 32.2 5 Este 12 Sur 0 -- -- 33
2020-07-23 15:00:00 31.4 4 Sur 13 Sudeste 0 -- -- 33
2020-07-23 14:00:00 31.7 4 Sudeste 13 Sudeste 0 -- -- 37
2020-07-23 13:00:00 30.1 4 Este 8 Este 0 -- -- 37
2020-07-23 12:00:00 28.1 3 Nordeste 8 Nordeste 0 -- -- 48
2020-07-23 11:00:00 25 3 Sudeste 5 Este 0 -- -- 59
2020-07-23 10:00:00 20 2 Este 4 Sudeste 0 -- -- 80
2020-07-23 09:00:00 15.7 0 Calma 3 Sur 0 -- -- 95
2020-07-23 08:00:00 13.3 2 Sudoeste 4 Sur 0 -- -- 95
2020-07-23 07:00:00 13.2 2 Sur 4 Sur 0 -- -- 93
2020-07-23 06:00:00 13.7 0 Calma 4 Sur 0 -- -- 92
2020-07-23 05:00:00 14.5 0 Calma 8 Sur 0 -- -- 90
2020-07-23 04:00:00 15 2 Sur 7 Sur 0 -- -- 88
2020-07-23 03:00:00 15.5 2 Sudoeste 4 Sur 0 -- -- 87
2020-07-23 02:00:00 16.4 2 Sur 3 Sudoeste 0 -- -- 84
2020-07-23 01:00:00 17.3 2 Sur 4 Sur 0 -- -- 82
2020-07-23 00:00:00 18.3 0 Calma 4 Sur 0 -- -- 79
2020-07-22 23:00:00 19.5 0 Calma 5 Sur 0 -- -- 77
2020-07-22 22:00:00 23.2 2 Sudeste 8 Sudoeste 0 -- -- 64
2020-07-22 21:00:00 28.7 2 Sur 5 Noroeste 0 -- -- 49
2020-07-22 20:00:00 30 2 Norte 8 Noroeste 0 -- -- 38
2020-07-22 19:00:00 30.6 4 Noroeste 17 Noroeste 0 -- -- 35
2020-07-22 18:00:00 30.7 3 Sur 15 Oeste 0 -- -- 32
2020-07-22 17:00:00 29.9 7 Noroeste 18 Noroeste 0 -- -- 36
2020-07-22 16:00:00 29.1 4 Nordeste 15 Oeste 0 -- -- 39
2020-07-22 15:00:00 28.6 5 Noroeste 24 Oeste 0 -- -- 37
2020-07-22 14:00:00 27.2 7 Noroeste 15 Noroeste 0 -- -- 40
2020-07-22 13:00:00 26.2 4 Oeste 11 Oeste 0 -- -- 48
2020-07-22 12:00:00 24.5 2 Sudeste 7 Norte 0 -- -- 54
2020-07-22 11:00:00 22 4 Norte 8 Norte 0 -- -- 66
2020-07-22 10:00:00 17.7 0 Calma 4 Sudoeste 0 -- -- 91
2020-07-22 09:00:00 14.4 2 Sur 3 Sur 0 -- -- 97
2020-07-22 08:00:00 13.1 0 Calma 6 Sudoeste 0 -- -- 96
2020-07-22 07:00:00 11.7 0 Calma 5 Sur 0 -- -- 97
2020-07-22 06:00:00 11.7 2 Sur 5 Sudoeste 0 -- -- 96
2020-07-22 05:00:00 12.5 2 Sur 6 Sudoeste 0 -- -- 95
2020-07-22 04:00:00 12.8 2 Sudoeste 5 Sur 0 -- -- 94
2020-07-22 03:00:00 13.6 2 Sur 7 Sur 0 -- -- 92
2020-07-22 02:00:00 15 2 Este 5 Este 0 -- -- 92
2020-07-22 01:00:00 17 0 Calma 13 Este 0.2 -- -- 86
2020-07-22 00:00:00 18.8 3 Este 13 Sudeste 0 -- -- 71
2020-07-21 23:00:00 18 0 Calma 5 Sudoeste 0 -- -- 83
2020-07-21 22:00:00 20.6 0 Calma 10 Sudeste 0 -- -- 74
2020-07-21 21:00:00 22.5 0 Calma 5 Sur 0 -- -- 74
2020-07-21 20:00:00 21.9 2 Este 9 Este 0 -- -- 64
2020-07-21 19:00:00 20.4 2 Sudeste 9 Sudeste 0 -- -- 78
2020-07-21 18:00:00 20 3 Sudeste 10 Sur 0.2 -- -- 88
2020-07-21 17:00:00 20.1 3 Sudoeste 14 Sudoeste 0.6 -- -- 80
2020-07-21 16:00:00 20.1 4 Sur 29 Sur 0.4 -- -- 76
2020-07-21 15:00:00 20.4 13 Sur 32 Sudeste 0.4 -- -- 63
2020-07-21 14:00:00 21.6 9 Este 24 Este 0.2 -- -- 62
2020-07-21 13:00:00 25.1 3 Nordeste 10 Nordeste 0 -- -- 55
2020-07-21 12:00:00 22.6 3 Nordeste 10 Norte 0 -- -- 60
2020-07-21 11:00:00 17.9 4 Este 10 Sudeste 0.2 -- -- 88
2020-07-21 10:00:00 17.8 3 Sur 13 Sudoeste 0 -- -- 81
2020-07-21 09:00:00 16.9 2 Sur 5 Sur 0 -- -- 85
2020-07-21 08:00:00 16.3 3 Este 9 Norte 0 -- -- 84
2020-07-21 07:00:00 16.2 0 Calma 10 Sur 0 -- -- 90
2020-07-21 06:00:00 15 3 Sur 9 Este 0.8 -- -- 91
2020-07-21 05:00:00 13.2 2 Sur 4 Sur 0 -- -- 77
2020-07-21 04:00:00 12.8 0 Calma 4 Sur 0 -- -- 75
2020-07-21 03:00:00 12.4 2 Sur 5 Sur 0 -- -- 73
2020-07-21 02:00:00 12.7 3 Sur 5 Sur 0 -- -- 71
2020-07-21 01:00:00 13.7 2 Sur 4 Sudoeste 0 -- -- 68
2020-07-21 00:00:00 15.3 2 Sur 6 Sur 0 -- -- 64
2020-07-20 23:00:00 17.4 3 Sur 7 Sur 0 -- -- 60
2020-07-20 22:00:00 21.5 3 Sur 6 Sur 0 -- -- 57
2020-07-20 21:00:00 27.8 0 Calma 4 Noroeste 0 -- -- 47
2020-07-20 20:00:00 29.9 0 Calma 8 Norte 0 -- -- 36
2020-07-20 19:00:00 31.2 2 Este 12 Oeste 0 -- -- 24
2020-07-20 18:00:00 32.4 4 Nordeste 10 Oeste 0 -- -- 24
2020-07-20 17:00:00 32.2 3 Este 13 Sur 0 -- -- 21
2020-07-20 16:00:00 32.2 5 Sur 17 Sudoeste 0 -- -- 18
2020-07-20 15:00:00 31.6 8 Sur 21 Sur 0 -- -- 21
2020-07-20 14:00:00 30.9 9 Sur 22 Sur 0 -- -- 22
2020-07-20 13:00:00 30.5 10 Sudoeste 20 Sur 0 -- -- 20
2020-07-20 12:00:00 29.1 10 Sur 18 Sur 0 -- -- 20
2020-07-20 11:00:00 23.3 0 Calma 4 Nordeste 0 -- -- 47
2020-07-20 10:00:00 17.2 0 Calma 4 Sudeste 0 -- -- 80
2020-07-20 09:00:00 11.3 0 Calma 5 Sudeste 0 -- -- 83
2020-07-20 08:00:00 8.2 2 Sur 4 Sur 0 -- -- 90
2020-07-20 07:00:00 8.6 0 Calma 4 Sur 0 -- -- 91
2020-07-20 06:00:00 9 2 Sur 5 Sudoeste 0 -- -- 92
2020-07-20 05:00:00 9.6 2 Sudoeste 4 Sur 0 -- -- 90
2020-07-20 04:00:00 10.2 0 Calma 4 Sur 0 -- -- 88
2020-07-20 03:00:00 11.2 0 Calma 4 Sur 0 -- -- 86
2020-07-20 02:00:00 12.2 3 Sur 5 Sur 0 -- -- 82
2020-07-20 01:00:00 13.6 2 Sur 4 Sur 0 -- -- 78
2020-07-20 00:00:00 15.7 0 Calma 7 Sur 0 -- -- 70
2020-07-19 23:00:00 17.7 0 Calma 3 Sur 0 -- -- 61
2020-07-19 22:00:00 22.5 0 Calma 9 Sur 0 -- -- 44
2020-07-19 21:00:00 29 5 Sur 19 Sur 0 -- -- 24
2020-07-19 20:00:00 31.2 5 Sur 23 Sur 0 -- -- 27
2020-07-19 19:00:00 31.4 10 Sur 25 Sur 0 -- -- 26
2020-07-19 18:00:00 32.1 10 Sur 23 Sur 0 -- -- 24
2020-07-19 17:00:00 32 10 Sur 24 Sur 0 -- -- 23
2020-07-19 16:00:00 31.4 10 Sur 24 Sur 0 -- -- 25
2020-07-19 15:00:00 31.1 8 Sudoeste 27 Sur 0 -- -- 28
2020-07-19 14:00:00 30.6 8 Sudoeste 22 Sur 0 -- -- 26
2020-07-19 13:00:00 30.5 9 Sur 19 Sudoeste 0 -- -- 25
2020-07-19 12:00:00 28.9 5 Sudoeste 15 Sur 0 -- -- 23
2020-07-19 11:00:00 26.5 4 Sudoeste 13 Oeste 0 -- -- 30
2020-07-19 10:00:00 21.2 4 Sur 9 Sur 0 -- -- 54
2020-07-19 09:00:00 14.8 0 Calma 4 Sur 0 -- -- 89
2020-07-19 08:00:00 11.4 3 Sur 5 Sur 0 -- -- 89
2020-07-19 07:00:00 11.6 3 Sudoeste 4 Sur 0 -- -- 88
2020-07-19 06:00:00 12.2 3 Sur 5 Sur 0 -- -- 88
2020-07-19 05:00:00 13.1 3 Sur 5 Sur 0 -- -- 85
2020-07-19 04:00:00 13.5 0 Calma 5 Sudoeste 0 -- -- 84
2020-07-19 03:00:00 14.2 2 Sur 5 Sur 0 -- -- 83
2020-07-19 02:00:00 15.3 0 Calma 4 Sur 0 -- -- 80
2020-07-19 01:00:00 16.3 2 Sur 5 Sur 0 -- -- 78
2020-07-19 00:00:00 17.6 0 Calma 5 Sur 0 -- -- 71
2020-07-18 23:00:00 20 3 Sudeste 7 Sudeste 0 -- -- 65
2020-07-18 22:00:00 23.4 4 Sur 8 Sur 0 -- -- 60
2020-07-18 21:00:00 29.8 3 Sur 6 Noroeste 0 -- -- 44
2020-07-18 20:00:00 32 2 Norte 14 Noroeste 0 -- -- 34
2020-07-18 19:00:00 33.4 8 Noroeste 16 Oeste 0 -- -- 23
2020-07-18 18:00:00 33.4 4 Norte 15 Noroeste 0 -- -- 29
2020-07-18 17:00:00 33.1 4 Norte 14 Noroeste 0 -- -- 22
2020-07-18 16:00:00 33 5 Nordeste 17 Noroeste 0 -- -- 26
2020-07-18 15:00:00 31.6 5 Norte 14 Sudoeste 0 -- -- 25
2020-07-18 14:00:00 30.8 3 Nordeste 10 Nordeste 0 -- -- 27
2020-07-18 13:00:00 29.4 3 Nordeste 9 Norte 0 -- -- 31
2020-07-18 12:00:00 27.1 4 Nordeste 8 Norte 0 -- -- 38
2020-07-18 11:00:00 23.4 3 Nordeste 5 Nordeste 0 -- -- 49
2020-07-18 10:00:00 17 0 Calma 2 Nordeste 0 -- -- 71
2020-07-18 09:00:00 12.1 0 Calma 4 Sur 0 -- -- 76
2020-07-18 08:00:00 9 0 Calma 4 Sur 0 -- -- 78
2020-07-18 07:00:00 8.4 2 Sur 4 Sur 0 -- -- 78
2020-07-18 06:00:00 8.6 2 Sur 4 Sur 0 -- -- 78
2020-07-18 05:00:00 9.1 3 Sudoeste 5 Sudoeste 0 -- -- 76
2020-07-18 04:00:00 9.7 0 Calma 5 Sur 0 -- -- 74
2020-07-18 03:00:00 10 2 Sur 5 Sur 0 -- -- 72
2020-07-18 02:00:00 11.1 2 Sur 4 Sur 0 -- -- 70
2020-07-18 01:00:00 12.4 2 Sur 5 Sur 0 -- -- 70
2020-07-18 00:00:00 14.2 2 Sur 8 Sur 0 -- -- 68
2020-07-17 23:00:00 17.1 3 Sur 8 Sudoeste 0 -- -- 64
2020-07-17 22:00:00 22.1 4 Sur 9 Sur 0 -- -- 55
2020-07-17 21:00:00 29.6 0 Calma 13 Nordeste 0 -- -- 35
2020-07-17 20:00:00 31.1 5 Norte 14 Norte 0 -- -- 26
2020-07-17 19:00:00 31.7 6 Norte 21 Noroeste 0 -- -- 26
2020-07-17 18:00:00 32.1 6 Norte 19 Nordeste 0 -- -- 24
2020-07-17 17:00:00 31.9 6 Norte 19 Norte 0 -- -- 24
2020-07-17 16:00:00 31.4 5 Norte 15 Noroeste 0 -- -- 26
2020-07-17 15:00:00 30.8 8 Norte 22 Norte 0 -- -- 27
2020-07-17 14:00:00 29.8 5 Norte 13 Noroeste 0 -- -- 28
2020-07-17 13:00:00 27.9 5 Norte 11 Nordeste 0 -- -- 35
2020-07-17 12:00:00 25.5 3 Nordeste 8 Nordeste 0 -- -- 37
2020-07-17 11:00:00 22.6 3 Nordeste 6 Norte 0 -- -- 47
2020-07-17 10:00:00 17.7 2 Nordeste 4 Este 0 -- -- 64
2020-07-17 09:00:00 13 0 Calma 3 Sur 0 -- -- 89
2020-07-17 08:00:00 10.4 0 Calma 3 Sur 0 -- -- 89
2020-07-17 07:00:00 10.2 0 Calma 4 Sur 0 -- -- 87
2020-07-17 06:00:00 10.4 0 Calma 4 Sur 0 -- -- 84
2020-07-17 05:00:00 11 2 Sur 5 Sur 0 -- -- 81
2020-07-17 04:00:00 11.7 2 Sudoeste 4 Sur 0 -- -- 79
2020-07-17 03:00:00 12.3 2 Sur 4 Sur 0 -- -- 76
2020-07-17 02:00:00 13.3 3 Sur 6 Sur 0 -- -- 74
2020-07-17 01:00:00 14.7 2 Sur 8 Sudoeste 0 -- -- 73
2020-07-17 00:00:00 15.9 3 Sur 6 Sur 0 -- -- 73
2020-07-16 23:00:00 18.3 3 Sur 7 Sudoeste 0 -- -- 70
2020-07-16 22:00:00 22.6 4 Sur 8 Sudoeste 0 -- -- 61
2020-07-16 21:00:00 29.4 2 Sur 5 Sudoeste 0 -- -- 44
2020-07-16 20:00:00 31 2 Nordeste 8 Norte 0 -- -- 31
2020-07-16 19:00:00 32 4 Norte 14 Norte 0 -- -- 28
2020-07-16 18:00:00 32.4 3 Nordeste 10 Norte 0 -- -- 28
2020-07-16 17:00:00 32.1 4 Nordeste 14 Noroeste 0 -- -- 26
2020-07-16 16:00:00 31.7 4 Nordeste 12 Sudeste 0 -- -- 27
2020-07-16 15:00:00 31 4 Norte 11 Oeste 0 -- -- 34
2020-07-16 14:00:00 29.4 6 Noroeste 9 Noroeste 0 -- -- 34
2020-07-16 13:00:00 27.2 4 Norte 9 Nordeste 0 -- -- 39
2020-07-16 12:00:00 24.2 3 Nordeste 10 Nordeste 0 -- -- 44
2020-07-16 11:00:00 21.1 3 Norte 9 Norte 0 -- -- 51
2020-07-16 10:00:00 16.9 2 Norte 5 Nordeste 0 -- -- 66
2020-07-16 09:00:00 12.4 0 Calma 3 Sur 0 -- -- 88
2020-07-16 08:00:00 9.4 0 Calma 4 Sur 0 -- -- 89
2020-07-16 07:00:00 9.2 0 Calma 4 Sur 0 -- -- 87
2020-07-16 06:00:00 9.5 0 Calma 4 Sur 0 -- -- 85
2020-07-16 05:00:00 9.9 0 Calma 4 Sur 0 -- -- 83
2020-07-16 04:00:00 10.4 2 Sur 4 Sur 0 -- -- 80
2020-07-16 03:00:00 11.1 0 Calma 4 Sudoeste 0 -- -- 75
2020-07-16 02:00:00 11.8 0 Calma 4 Sur 0 -- -- 72
2020-07-16 01:00:00 12.9 2 Sur 5 Sudoeste 0 -- -- 70
2020-07-16 00:00:00 14.7 2 Sur 6 Sur 0 -- -- 68
2020-07-15 23:00:00 17.3 2 Sudeste 9 Sudoeste 0 -- -- 66
2020-07-15 22:00:00 21.9 4 Sur 6 Sur 0 -- -- 53
2020-07-15 21:00:00 28.5 4 Norte 11 Noroeste 0 -- -- 32
2020-07-15 20:00:00 29.6 4 Norte 14 Norte 0 -- -- 28
2020-07-15 19:00:00 30.4 3 Norte 15 Norte 0 -- -- 28
2020-07-15 18:00:00 30.4 6 Norte 17 Noroeste 0 -- -- 26
2020-07-15 17:00:00 29.8 6 Norte 16 Norte 0 -- -- 28
2020-07-15 16:00:00 29 6 Norte 17 Sudeste 0 -- -- 27
2020-07-15 15:00:00 28.1 5 Norte 23 Noroeste 0 -- -- 29
2020-07-15 14:00:00 26 9 Norte 20 Norte 0 -- -- 33
2020-07-15 13:00:00 24.1 7 Norte 21 Noroeste 0 -- -- 35
2020-07-15 12:00:00 21.7 7 Norte 18 Noroeste 0 -- -- 42
2020-07-15 11:00:00 18.3 4 Norte 15 Norte 0 -- -- 49
2020-07-15 10:00:00 15 6 Norte 15 Norte 0 -- -- 58
2020-07-15 09:00:00 11.7 3 Norte 8 Norte 0 -- -- 74
2020-07-15 08:00:00 8.2 0 Calma 4 Sur 0 -- -- 93
2020-07-15 07:00:00 7.8 0 Calma 4 Sudeste 0 -- -- 89
2020-07-15 06:00:00 8.2 0 Calma 4 Sur 0 -- -- 86
2020-07-15 05:00:00 8.8 0 Calma 4 Sur 0 -- -- 82
2020-07-15 04:00:00 9.4 0 Calma 6 Sur 0 -- -- 78
2020-07-15 03:00:00 10 2 Sudoeste 5 Sur 0 -- -- 77
2020-07-15 02:00:00 11.2 2 Sur 5 Sudeste 0 -- -- 73
2020-07-15 01:00:00 12.1 2 Sur 5 Sur 0 -- -- 70
2020-07-15 00:00:00 13.7 2 Sur 5 Sur 0 -- -- 69
2020-07-14 23:00:00 16.5 3 Sur 5 Sur 0 -- -- 64
2020-07-14 22:00:00 21.5 2 Sur 6 Sur 0 -- -- 50
2020-07-14 21:00:00 27.8 2 Norte 18 Norte 0 -- -- 31
2020-07-14 20:00:00 28.8 5 Norte 22 Noroeste 0 -- -- 28
2020-07-14 19:00:00 29.3 4 Norte 19 Noroeste 0 -- -- 26
2020-07-14 18:00:00 29.7 6 Norte 19 Noroeste 0 -- -- 27
2020-07-14 17:00:00 29.4 6 Norte 23 Norte 0 -- -- 27
2020-07-14 16:00:00 28.9 8 Norte 18 Noroeste 0 -- -- 27
2020-07-14 15:00:00 28.2 10 Norte 20 Noroeste 0 -- -- 27
2020-07-14 14:00:00 27.3 7 Norte 20 Norte 0 -- -- 23
2020-07-14 13:00:00 25.7 5 Norte 16 Norte 0 -- -- 24
2020-07-14 12:00:00 23.8 4 Norte 12 Nordeste 0 -- -- 28
2020-07-14 11:00:00 20.8 5 Norte 11 Oeste 0 -- -- 38
2020-07-14 10:00:00 16.3 3 Norte 8 Noroeste 0 -- -- 56
2020-07-14 09:00:00 12.6 0 Calma 3 Sur 0 -- -- 89
2020-07-14 08:00:00 10.9 0 Calma 4 Sur 0 -- -- 93
2020-07-14 07:00:00 10.9 0 Calma 4 Sur 0 -- -- 92
2020-07-14 06:00:00 10.9 2 Sur 4 Sur 0 -- -- 90
2020-07-14 05:00:00 11.4 0 Calma 4 Sur 0 -- -- 89
2020-07-14 04:00:00 11.9 2 Sur 5 Sur 0 -- -- 85
2020-07-14 03:00:00 12.9 2 Sur 6 Sur 0 -- -- 82
2020-07-14 02:00:00 13 0 Calma 5 Sur 0 -- -- 81
2020-07-14 01:00:00 13.8 2 Sur 6 Sur 0 -- -- 76
2020-07-14 00:00:00 15.5 2 Sudeste 7 Sur 0 -- -- 70
2020-07-13 23:00:00 17.6 2 Sur 7 Sur 0 -- -- 65
2020-07-13 22:00:00 22.6 3 Sur 9 Noroeste 0 -- -- 52
2020-07-13 21:00:00 28.2 5 Norte 16 Norte 0 -- -- 34
2020-07-13 20:00:00 29.4 4 Norte 21 Noroeste 0 -- -- 33
2020-07-13 19:00:00 30.1 8 Norte 22 Noroeste 0 -- -- 30
2020-07-13 18:00:00 30.3 6 Norte 20 Noroeste 0 -- -- 34
2020-07-13 17:00:00 29.9 6 Nordeste 24 Norte 0 -- -- 34
2020-07-13 16:00:00 29.4 9 Norte 20 Norte 0 -- -- 37
2020-07-13 15:00:00 28.5 7 Norte 22 Norte 0 -- -- 41
2020-07-13 14:00:00 27.5 6 Norte 20 Norte 0 -- -- 43
2020-07-13 13:00:00 25.8 7 Norte 24 Norte 0 -- -- 48
2020-07-13 12:00:00 23.8 4 Nordeste 15 Norte 0 -- -- 57
2020-07-13 11:00:00 21.2 6 Norte 13 Norte 0 -- -- 66
2020-07-13 10:00:00 17.9 4 Norte 10 Norte 0 -- -- 79
2020-07-13 09:00:00 15 0 Calma 4 Oeste 0 -- -- 95
2020-07-13 08:00:00 12.5 0 Calma 3 Sur 0 -- -- 97
2020-07-13 07:00:00 12.5 0 Calma 3 Sur 0 -- -- 96
2020-07-13 06:00:00 12.6 0 Calma 4 Sudoeste 0 -- -- 95
2020-07-13 05:00:00 12.8 2 Sur 5 Sudeste 0 -- -- 92
2020-07-13 04:00:00 13.1 0 Calma 4 Sur 0 -- -- 91
2020-07-13 03:00:00 13.7 2 Sur 5 Sur 0 -- -- 89
2020-07-13 02:00:00 14.4 0 Calma 4 Sur 0 -- -- 87
2020-07-13 01:00:00 15.4 0 Calma 4 Sur 0 -- -- 85
2020-07-13 00:00:00 16.8 2 Sur 4 Sur 0 -- -- 81
2020-07-12 23:00:00 18.9 2 Sur 5 Sur 0 -- -- 76
2020-07-12 22:00:00 23.1 3 Sur 6 Noroeste 0 -- -- 63
2020-07-12 21:00:00 27.3 4 Norte 16 Noroeste 0 -- -- 45
2020-07-12 20:00:00 28.1 8 Norte 18 Noroeste 0 -- -- 41
2020-07-12 19:00:00 28.5 8 Norte 24 Noroeste 0 -- -- 39
2020-07-12 18:00:00 28.3 11 Noroeste 31 Oeste 0 -- -- 37
2020-07-12 17:00:00 27.7 12 Noroeste 26 Noroeste 0 -- -- 43
2020-07-12 16:00:00 27.4 10 Noroeste 26 Noroeste 0 -- -- 42
2020-07-12 15:00:00 27 13 Noroeste 24 Norte 0 -- -- 40
2020-07-12 14:00:00 25.9 7 Noroeste 19 Noroeste 0 -- -- 46
2020-07-12 13:00:00 24.6 5 Norte 10 Noroeste 0 -- -- 50
2020-07-12 12:00:00 21.6 0 Calma 5 Oeste 0 -- -- 78
2020-07-12 11:00:00 18.7 3 Sudoeste 11 Sudeste 0 -- -- 87
2020-07-12 10:00:00 16.8 3 Sur 12 Noroeste 0 -- -- 88
2020-07-12 09:00:00 16 4 Norte 14 Oeste 0 -- -- 91
2020-07-12 08:00:00 16.4 3 Sudoeste 28 Norte 0 -- -- 84
2020-07-12 07:00:00 14.4 2 Sudoeste 7 Sur 0 -- -- 95
2020-07-12 06:00:00 14.5 0 Calma 6 Sur 0 -- -- 95
2020-07-12 05:00:00 14.6 2 Sur 12 Oeste 0 -- -- 94
2020-07-12 04:00:00 14.9 0 Calma 6 Nordeste 0 -- -- 94
2020-07-12 03:00:00 14.8 4 Sudoeste 11 Oeste 0 -- -- 96
2020-07-12 02:00:00 14.7 0 Calma 6 Sur 0 -- -- 94
2020-07-12 01:00:00 15.6 2 Este 7 Sur 0 -- -- 94
2020-07-12 00:00:00 16.6 4 Norte 10 Oeste 0 -- -- 92
2020-07-11 23:00:00 16.9 3 Sudoeste 9 Sudeste 0.8 -- -- 91
2020-07-11 22:00:00 17.3 2 Nordeste 13 Sudoeste 0.2 -- -- 86
2020-07-11 21:00:00 18.7 6 Sur 51 Oeste 1.2 -- -- 80
2020-07-11 20:00:00 26.7 0 Calma 6 Este 0 -- -- 51
2020-07-11 19:00:00 32 5 Sudeste 15 Sudeste 0 -- -- 32
2020-07-11 18:00:00 31.7 3 Nordeste 13 Sur 0 -- -- 26
2020-07-11 17:00:00 32.9 4 Sudeste 14 Sudeste 0 -- -- 26
2020-07-11 16:00:00 31.5 6 Este 24 Sur 0 -- -- 28
2020-07-11 15:00:00 32.1 7 Sur 25 Sur 0 -- -- 29
2020-07-11 14:00:00 30.9 9 Sur 22 Sur 0 -- -- 28
2020-07-11 13:00:00 28.1 4 Norte 11 Norte 0 -- -- 49
2020-07-11 12:00:00 25.1 4 Norte 9 Norte 0 -- -- 55
2020-07-11 11:00:00 21.4 3 Norte 8 Norte 0 -- -- 65
2020-07-11 10:00:00 17.3 2 Norte 6 Norte 0 -- -- 81
2020-07-11 09:00:00 13.9 0 Calma 2 Sudeste 0 -- -- 95
2020-07-11 08:00:00 11.4 0 Calma 4 Sur 0 -- -- 95
2020-07-11 07:00:00 11.5 0 Calma 4 Sur 0 -- -- 93
2020-07-11 06:00:00 12.3 0 Calma 4 Sur 0 -- -- 92
2020-07-11 05:00:00 13.1 0 Calma 5 Sudoeste 0 -- -- 90
2020-07-11 04:00:00 13.6 2 Sur 5 Sur 0 -- -- 89
2020-07-11 03:00:00 13.7 0 Calma 7 Sur 0 -- -- 86
2020-07-11 02:00:00 13.9 0 Calma 5 Sudeste 0 -- -- 81
2020-07-11 01:00:00 14.9 2 Sur 6 Sur 0 -- -- 77
2020-07-11 00:00:00 16.3 2 Sur 4 Sudoeste 0 -- -- 75
2020-07-10 23:00:00 18.5 3 Sur 6 Sur 0 -- -- 71
2020-07-10 22:00:00 22.7 3 Sur 8 Sur 0 -- -- 63
2020-07-10 21:00:00 28.6 2 Sur 6 Norte 0 -- -- 45
2020-07-10 20:00:00 30.6 2 Nordeste 9 Este 0 -- -- 31
2020-07-10 19:00:00 30.9 3 Nordeste 10 Norte 0 -- -- 28
2020-07-10 18:00:00 31.3 4 Nordeste 13 Norte 0 -- -- 29
2020-07-10 17:00:00 31.2 7 Norte 14 Noroeste 0 -- -- 25
2020-07-10 16:00:00 30.5 5 Norte 13 Noroeste 0 -- -- 30
2020-07-10 15:00:00 29.4 6 Norte 15 Noroeste 0 -- -- 35
2020-07-10 14:00:00 28.3 7 Norte 14 Oeste 0 -- -- 38
2020-07-10 13:00:00 27 4 Norte 10 Norte 0 -- -- 45
2020-07-10 12:00:00 25.6 3 Norte 9 Norte 0 -- -- 50
2020-07-10 11:00:00 22.9 3 Norte 6 Norte 0 -- -- 59
2020-07-10 10:00:00 18.5 0 Calma 5 Sur 0 -- -- 73
2020-07-10 09:00:00 14.1 0 Calma 4 Sur 0 -- -- 95
2020-07-10 08:00:00 11.8 0 Calma 4 Sur 0 -- -- 95
2020-07-10 07:00:00 11.9 3 Sur 5 Sudeste 0 -- -- 94
2020-07-10 06:00:00 12.8 0 Calma 5 Sudoeste 0 -- -- 93
2020-07-10 05:00:00 13.5 0 Calma 5 Sudeste 0 -- -- 91
2020-07-10 04:00:00 14.4 2 Sur 4 Sudoeste 0 -- -- 89
2020-07-10 03:00:00 15 2 Sur 4 Sur 0 -- -- 88
2020-07-10 02:00:00 15.8 2 Sur 5 Sur 0 -- -- 86
2020-07-10 01:00:00 17.5 0 Calma 5 Sur 0 -- -- 81
2020-07-10 00:00:00 18.5 0 Calma 8 Sudoeste 0 -- -- 75
2020-07-09 23:00:00 18.9 2 Sur 6 Sur 0 -- -- 72
2020-07-09 22:00:00 21.9 2 Sudeste 6 Sur 0 -- -- 58
2020-07-09 21:00:00 28.2 0 Calma 8 Oeste 0 -- -- 40
2020-07-09 20:00:00 31 4 Oeste 12 Oeste 0 -- -- 24
2020-07-09 19:00:00 31.2 3 Oeste 11 Sudoeste 0 -- -- 23
2020-07-09 18:00:00 30.9 4 Sur 11 Norte 0 -- -- 22
2020-07-09 17:00:00 30.4 3 Nordeste 15 Noroeste 0 -- -- 25
2020-07-09 16:00:00 29.7 4 Nordeste 9 Noroeste 0 -- -- 22
2020-07-09 15:00:00 28.8 3 Nordeste 18 Sudeste 0 -- -- 24
2020-07-09 14:00:00 28 5 Este 14 Este 0 -- -- 31
2020-07-09 13:00:00 27.5 4 Sudeste 16 Sudeste 0 -- -- 32
2020-07-09 12:00:00 25.8 7 Sur 14 Sur 0 -- -- 32
2020-07-09 11:00:00 22.6 3 Sudeste 9 Este 0 -- -- 39
2020-07-09 10:00:00 16.6 0 Calma 2 Norte 0 -- -- 81
2020-07-09 09:00:00 12.2 0 Calma 2 Sur 0 -- -- 97
2020-07-09 08:00:00 9.3 0 Calma 3 Sur 0 -- -- 96
2020-07-09 07:00:00 9.1 0 Calma 4 Sudeste 0 -- -- 94
2020-07-09 06:00:00 9.6 0 Calma 4 Sudoeste 0 -- -- 93
2020-07-09 05:00:00 10.2 0 Calma 5 Sur 0 -- -- 92
2020-07-09 04:00:00 11 0 Calma 5 Sudoeste 0 -- -- 89
2020-07-09 03:00:00 12.1 0 Calma 5 Sur 0 -- -- 88
2020-07-09 02:00:00 13.3 3 Sur 5 Sur 0 -- -- 87
2020-07-09 01:00:00 14.3 0 Calma 4 Sur 0 -- -- 83
2020-07-09 00:00:00 14.8 2 Sudeste 6 Sur 0 -- -- 76
2020-07-08 23:00:00 15.6 2 Sur 5 Sudeste 0 -- -- 62
2020-07-08 22:00:00 20.4 3 Sur 5 Sur 0 -- -- 52
2020-07-08 21:00:00 28.1 0 Calma 6 Sudoeste 0 -- -- 31
2020-07-08 20:00:00 30.6 4 Sudoeste 17 Sudoeste 0 -- -- 20
2020-07-08 19:00:00 30.6 6 Sudoeste 22 Sur 0 -- -- 21
2020-07-08 18:00:00 30.9 8 Sur 23 Sur 0 -- -- 21
2020-07-08 17:00:00 31 8 Sudoeste 23 Sur 0 -- -- 21
2020-07-08 16:00:00 30.8 11 Sur 23 Sur 0 -- -- 24
2020-07-08 15:00:00 30.1 13 Sur 26 Sur 0 -- -- 26
2020-07-08 14:00:00 29.4 11 Sur 26 Sudoeste 0 -- -- 29
2020-07-08 13:00:00 29.1 13 Sur 29 Sur 0 -- -- 26
2020-07-08 12:00:00 28 9 Sur 24 Sur 0 -- -- 26
2020-07-08 11:00:00 26.8 10 Sur 23 Sudeste 0 -- -- 26
2020-07-08 10:00:00 18.3 2 Nordeste 7 Norte 0 -- -- 77
2020-07-08 09:00:00 13.7 0 Calma 2 Este 0 -- -- 89
2020-07-08 08:00:00 11.3 2 Sur 3 Sur 0 -- -- 89
2020-07-08 07:00:00 11.7 2 Sur 3 Sur 0 -- -- 87
2020-07-08 06:00:00 12.8 2 Sur 4 Sur 0 -- -- 84
2020-07-08 05:00:00 13.6 0 Calma 4 Sudoeste 0 -- -- 82
2020-07-08 04:00:00 14.3 2 Sur 4 Sur 0 -- -- 79
2020-07-08 03:00:00 14.6 0 Calma 5 Sur 0 -- -- 77
2020-07-08 02:00:00 15.8 2 Sur 5 Sudoeste 0 -- -- 73
2020-07-08 01:00:00 16.7 3 Sudeste 7 Sur 0 -- -- 71
2020-07-08 00:00:00 17.9 0 Calma 3 Sudeste 0 -- -- 68